Wednesday, October 17, 2018, 1:02 PM EDT
Back to Local

KBHB, Bar Harbor, Hancock County-bar Harbor Airport

Location: Ellsworth, ME, United States Lat: 44.45
Local Time: 1:02 PM EDT (17:02 GMT) Lon: -68.367
Time Zone: US/Eastern Elev: 82 ft

Show me the last for .
Show Decoded

2018-10-17 11:56 METAR KBHB 171556Z AUTO 23006KT 10SM -RA FEW037 OVC046 11/06 A2974 RMK AO2
                 SLP075 P0000 T01060056 =
2018-10-17 09:56 METAR KBHB 171356Z AUTO 23009KT 10SM SCT085 11/04 A2980 RMK AO2 SLP096 T01060044
                 =
2018-10-17 08:56 METAR KBHB 171256Z AUTO 21008KT 10SM OVC085 09/03 A2983 RMK AO2 SLP104 T00940028
                 =
2018-10-17 07:56 METAR KBHB 171156Z AUTO 20008KT 10SM OVC090 09/04 A2985 RMK AO2 SLP111 T00890044
                 10089 20022 56017 =
2018-10-17 06:56 METAR KBHB 171056Z AUTO 18008KT 10SM OVC110 08/04 A2986 RMK AO2 SLP114 T00830044
                 =
2018-10-17 05:56 METAR KBHB 170956Z AUTO 17008KT 10SM OVC095 08/04 A2988 RMK AO2 SLP122 T00780039
                 =
2018-10-17 04:56 METAR KBHB 170856Z AUTO 00000KT 10SM SCT120 05/03 A2990 RMK AO2 SLP128 T00500028
                 56013 =
2018-10-17 03:56 METAR KBHB 170756Z AUTO 00000KT 9SM CLR 03/02 A2991 RMK AO2 SLP132 T00330017 =
2018-10-17 02:56 METAR KBHB 170656Z AUTO 00000KT 10SM CLR 03/01 A2992 RMK AO2 SLP135 T00280011 =
2018-10-17 01:56 METAR KBHB 170556Z AUTO 21003KT 10SM CLR 04/01 A2994 RMK AO2 SLP141 T00440006
                 10067 20028 58004 =
2018-10-16 23:56 METAR KBHB 170356Z AUTO 23004KT 10SM CLR 04/M02 A2996 RMK AO2 SLP149 T00441022 =
2018-10-16 22:56 METAR KBHB 170256Z AUTO 35003KT 10SM SCT110 04/M02 A2995 RMK AO2 SLP146
                 T00391017 50002 =
2018-10-16 21:56 METAR KBHB 170156Z AUTO 32003KT 10SM CLR 06/M02 A2995 RMK AO2 SLP147 T00561022 =
2018-10-16 20:56 METAR KBHB 170056Z AUTO 32004KT 10SM CLR 06/M02 A2995 RMK AO2 SLP147 T00611017 =
2018-10-16 19:56 METAR KBHB 162356Z AUTO 30004KT 10SM CLR 07/M01 A2994 RMK AO2 SLP144 T00671011
                 10117 20067 401610061 51022 =
2018-10-16 18:56 METAR KBHB 162256Z AUTO VRB03KT 10SM CLR 08/M01 A2993 RMK AO2 SLP138 T00781011 =
2018-10-16 17:56 METAR KBHB 162156Z AUTO 29006KT 10SM CLR 09/M02 A2990 RMK AO2 SLP131 T00891017 =
2018-10-16 16:56 METAR KBHB 162056Z AUTO 29010KT 10SM CLR 10/M01 A2988 RMK AO2 SLP121 T01001011
                 52011 =
2018-10-16 15:56 METAR KBHB 161956Z AUTO 27009G17KT 230V300 10SM CLR 11/M01 A2987 RMK AO2 SLP119
                 T01111011 =
2018-10-16 14:56 METAR KBHB 161856Z AUTO 30010G17KT 10SM CLR 11/M01 A2985 RMK AO2 SLP113
                 T01111006 =
2018-10-16 13:56 METAR KBHB 161756Z AUTO 28008G17KT 240V320 10SM CLR 11/M01 A2984 RMK AO2 SLP110
                 T01111006 10117 20067 53001 =

Support USWX by starting your Amazon purchase here.